Terminal Aerodrome Forecast
Issued by NWS

Home | Current Version | Previous Version | Graphics & Text | Print | Product List | Glossary On
Versions: 1 2 3 4 5 6 7 8 9 10 11 12 13 14 15 16 17 18 19 20 21 22 23 24 25 26 27
000
FTUS43 KLOT 201944 AAA
TAFGYY
TAF AMD
KGYY 201944Z 2020/2118 12013G21KT P6SM OVC012
     FM202300 14009KT P6SM VCSH SCT017 BKN035 OVC100
     FM210300 16007KT P6SM SCT030 OVC050
     FM210700 19007KT 6SM -SHRA BKN020
     FM211000 22008KT P6SM BKN015
     FM211400 24011KT P6SM BKN035=

USA.gov is the U.S. government's official web portal to all federal, state and local government web resources and services.